Time;durP1;ratioP1;P1;durP2;ratioP2;P2;SDS_P1;SDS_P2;PMS_P1;PMS_P2;Temp;Humidity;BMP_temperature;BMP_pressure;BME280_temperature;BME280_humidity;BME280_pressure;Samples;Min_cycle;Max_cycle;Signal;HPM_P1;HPM_P2
2022/01/12 00:01:24;;;;;;;6.50;4.50;;;0.90;71.10;;;;;;7373225;19;20203;-43
2022/01/12 00:03:53;;;;;;;5.82;4.10;;;0.80;71.20;;;;;;7377397;19;20171;-42
2022/01/12 00:06:24;;;;;;;9.98;4.75;;;0.80;71.60;;;;;;7381647;19;20139;-43
2022/01/12 00:08:53;;;;;;;8.85;4.82;;;0.80;71.90;;;;;;7380910;19;20219;-43
2022/01/12 00:11:23;;;;;;;9.20;5.55;;;0.80;71.40;;;;;;7378456;19;20163;-44
2022/01/12 00:13:53;;;;;;;7.07;5.03;;;0.90;71.80;;;;;;7377273;19;20843;-44
2022/01/12 00:16:25;;;;;;;8.38;4.43;;;0.80;71.50;;;;;;7375830;19;20617;-44
2022/01/12 00:18:55;;;;;;;6.55;4.40;;;0.80;71.40;;;;;;7380102;19;20138;-43
2022/01/12 00:21:24;;;;;;;7.00;4.22;;;0.70;71.50;;;;;;7378298;19;20131;-45
2022/01/12 00:23:54;;;;;;;5.75;4.05;;;0.70;71.80;;;;;;7383433;19;20206;-42
2022/01/12 00:26:40;;;;;;;6.75;4.80;;;0.60;72.50;;;;;;7381597;19;20136;-43
2022/01/12 00:34:51;;;;;;;6.95;4.47;;;0.50;74.10;;;;;;7374698;19;20627;-42
2022/01/12 00:37:20;;;;;;;5.57;4.30;;;0.50;74.10;;;;;;7375682;19;20119;-43
2022/01/12 00:39:50;;;;;;;9.15;4.85;;;0.40;74.00;;;;;;7373946;19;20634;-42
2022/01/12 00:42:23;;;;;;;6.15;4.32;;;0.40;74.00;;;;;;7375338;19;20144;-43
2022/01/12 00:44:55;;;;;;;8.63;4.95;;;0.40;74.10;;;;;;7372570;19;20131;-43
2022/01/12 00:47:29;;;;;;;8.20;4.40;;;0.40;74.40;;;;;;7374884;19;20970;-43
2022/01/12 00:49:59;;;;;;;7.75;4.30;;;0.40;74.70;;;;;;7376430;19;20656;-43
2022/01/12 00:52:29;;;;;;;6.75;4.90;;;0.30;74.60;;;;;;7365529;19;20139;-43
2022/01/12 00:54:58;;;;;;;10.20;4.97;;;0.30;74.60;;;;;;7369732;19;20658;-43
2022/01/12 00:57:28;;;;;;;6.47;4.25;;;0.40;74.60;;;;;;7368435;19;20495;-43
2022/01/12 00:59:58;;;;;;;6.72;4.55;;;0.40;74.80;;;;;;7378147;19;20160;-43
2022/01/12 01:02:32;;;;;;;6.13;4.20;;;1.30;75.90;;;;;;7370082;19;20127;-43
2022/01/12 01:05:03;;;;;;;16.10;5.43;;;0.40;74.80;;;;;;7375536;19;20140;-42
2022/01/12 01:07:32;;;;;;;7.90;4.50;;;0.30;74.70;;;;;;7370310;19;20131;-43
2022/01/12 01:10:05;;;;;;;6.53;4.07;;;0.30;74.90;;;;;;7367891;19;20625;-43
2022/01/12 01:12:38;;;;;;;7.03;4.25;;;0.30;74.90;;;;;;7364425;19;20138;-44
2022/01/12 01:15:14;;;;;;;5.70;4.43;;;0.30;74.80;;;;;;7369014;19;20150;-46
2022/01/12 01:25:54;;;;;;;7.50;4.07;;;0.30;74.90;;;;;;7375686;19;20127;-33
2022/01/12 01:28:26;;;;;;;7.95;4.25;;;0.30;74.40;;;;;;7374503;19;20141;-33
2022/01/12 01:30:56;;;;;;;6.20;3.67;;;0.30;74.50;;;;;;7373343;19;20124;-33
2022/01/12 01:33:33;;;;;;;5.78;4.25;;;0.30;74.30;;;;;;7374909;19;20223;-33
2022/01/12 01:36:05;;;;;;;9.43;4.72;;;0.20;74.30;;;;;;7372156;19;20210;-33
2022/01/12 01:38:35;;;;;;;7.15;4.78;;;0.30;74.50;;;;;;7373922;19;20131;-33
2022/01/12 01:41:05;;;;;;;7.60;4.47;;;0.30;74.50;;;;;;7372567;19;20218;-33
2022/01/12 01:43:54;;;;;;;8.82;5.22;;;0.90;74.70;;;;;;7369722;19;20127;-33
2022/01/12 01:54:33;;;;;;;5.35;3.75;;;0.10;74.10;;;;;;7374939;19;20506;-33
2022/01/12 01:57:02;;;;;;;5.90;4.05;;;0.10;74.00;;;;;;7373208;19;20138;-33
2022/01/12 01:59:32;;;;;;;8.40;3.80;;;0.10;73.90;;;;;;7380471;19;20635;-44
2022/01/12 02:02:02;;;;;;;4.40;4.00;;;0.10;73.60;;;;;;7376842;19;20584;-44
2022/01/12 02:04:34;;;;;;;6.13;4.70;;;0.10;74.00;;;;;;7375875;19;20134;-43
2022/01/12 02:07:04;;;;;;;7.22;3.90;;;0.10;74.00;;;;;;7376760;19;20131;-44
2022/01/12 02:09:34;;;;;;;7.68;4.43;;;0.10;74.00;;;;;;7373773;19;20605;-43
2022/01/12 02:12:16;;;;;;;5.70;4.78;;;-0.40;73.80;;;;;;7371759;19;20155;-43
2022/01/12 02:14:46;;;;;;;5.38;4.18;;;0.10;74.40;;;;;;7378889;19;20127;-44
2022/01/12 02:17:20;;;;;;;6.35;4.10;;;0.10;74.40;;;;;;7368610;19;20594;-44
2022/01/12 02:20:08;;;;;;;8.80;5.18;;;0.10;74.50;;;;;;7379948;19;20164;-43
2022/01/12 02:36:20;;;;;;;7.03;4.82;;;0.00;74.20;;;;;;7372741;19;20139;-33
2022/01/12 02:41:37;;;;;;;8.65;5.18;;;0.00;74.50;;;;;;7370685;19;20128;-33
2022/01/12 02:55:03;;;;;;;7.68;5.00;;;-0.30;75.90;;;;;;7365628;19;20142;-33
2022/01/12 02:57:35;;;;;;;8.80;5.50;;;-0.30;75.70;;;;;;7372345;19;20131;-33
2022/01/12 03:00:09;;;;;;;11.38;6.20;;;-0.30;75.70;;;;;;7371439;19;20123;-33
2022/01/12 03:02:42;;;;;;;6.93;5.18;;;-0.20;75.60;;;;;;7372727;19;20127;-33
2022/01/12 03:05:32;;;;;;;10.73;6.90;;;-0.20;75.50;;;;;;7372454;19;20608;-33
2022/01/12 03:08:10;;;;;;;8.75;5.65;;;-0.20;75.30;;;;;;7372654;19;20138;-33
2022/01/12 03:10:43;;;;;;;6.50;5.20;;;-0.20;75.60;;;;;;7365395;19;20506;-33
2022/01/12 03:13:13;;;;;;;5.60;4.88;;;-0.20;75.30;;;;;;7366731;19;20135;-33
2022/01/12 03:15:42;;;;;;;9.65;5.72;;;-0.30;75.70;;;;;;7372437;19;20613;-32
2022/01/12 03:18:17;;;;;;;8.27;5.22;;;-0.20;75.50;;;;;;7372662;19;20144;-33
2022/01/12 03:20:48;;;;;;;11.63;5.68;;;-0.20;75.00;;;;;;7371039;19;20148;-32
2022/01/12 03:23:18;;;;;;;5.93;4.68;;;-0.20;75.10;;;;;;7375413;19;20152;-33
2022/01/12 03:25:51;;;;;;;8.70;5.70;;;-0.20;75.20;;;;;;7373193;19;20139;-32
2022/01/12 03:28:21;;;;;;;7.78;5.00;;;-0.20;75.10;;;;;;7372290;19;20140;-33
2022/01/12 03:30:56;;;;;;;7.65;5.13;;;-0.20;75.10;;;;;;7373591;19;20131;-44
2022/01/12 03:33:52;;;;;;;7.32;5.35;;;-0.20;74.90;;;;;;7368646;19;20131;-43
2022/01/12 03:36:41;;;;;;;8.20;5.22;;;-0.20;75.10;;;;;;7372443;19;20127;-43
2022/01/12 03:39:13;;;;;;;7.65;5.85;;;-0.30;75.40;;;;;;7371259;19;20127;-43
2022/01/12 03:41:48;;;;;;;8.18;5.32;;;-0.30;75.30;;;;;;7374477;19;20525;-43
2022/01/12 03:44:18;;;;;;;7.53;5.20;;;-0.30;75.70;;;;;;7368729;19;20135;-44
2022/01/12 03:46:50;;;;;;;9.27;5.32;;;-0.30;75.90;;;;;;7367199;19;20132;-43
2022/01/12 03:49:22;;;;;;;6.57;5.10;;;-0.40;76.20;;;;;;7227421;19;2829577;-43
2022/01/12 03:51:53;;;;;;;12.00;6.18;;;-0.30;76.00;;;;;;7372710;19;20732;-43
2022/01/12 03:54:24;;;;;;;7.00;5.88;;;-0.30;75.60;;;;;;7369449;19;20214;-44
2022/01/12 03:57:00;;;;;;;8.93;6.00;;;-0.40;75.70;;;;;;7370060;19;20207;-45
2022/01/12 03:59:30;;;;;;;9.82;5.60;;;-0.30;75.60;;;;;;7370978;19;20127;-44
2022/01/12 04:02:00;;;;;;;7.90;5.72;;;-0.20;75.50;;;;;;7364098;19;20142;-45
2022/01/12 04:04:36;;;;;;;6.50;5.00;;;-0.30;75.50;;;;;;7376060;19;20135;-44
2022/01/12 04:09:49;;;;;;;10.10;5.20;;;-0.50;76.20;;;;;;7373097;19;20160;-43
2022/01/12 04:12:22;;;;;;;8.38;5.93;;;-0.40;76.50;;;;;;7364970;19;20163;-44
2022/01/12 04:14:52;;;;;;;8.30;5.82;;;-0.50;76.70;;;;;;7375170;19;20135;-44
2022/01/12 04:17:24;;;;;;;12.52;6.85;;;-0.60;76.90;;;;;;7361816;19;20190;-44
2022/01/12 04:19:56;;;;;;;9.05;5.55;;;-0.60;76.80;;;;;;7376565;19;20143;-43
2022/01/12 04:25:09;;;;;;;8.30;5.95;;;-0.70;77.60;;;;;;7372564;19;20711;-42
2022/01/12 04:27:41;;;;;;;8.60;5.63;;;-0.70;77.30;;;;;;7371896;19;20143;-43
2022/01/12 04:30:12;;;;;;;11.32;6.97;;;-0.70;77.30;;;;;;7372574;19;20146;-44
2022/01/12 04:32:42;;;;;;;8.15;5.95;;;-0.70;77.50;;;;;;7372638;19;20127;-43
2022/01/12 04:35:14;;;;;;;10.82;5.88;;;-0.70;77.50;;;;;;7371408;19;20135;-43
2022/01/12 04:37:44;;;;;;;9.45;6.50;;;-0.60;77.30;;;;;;7372062;19;20619;-42
2022/01/12 04:40:14;;;;;;;11.27;7.25;;;-0.70;77.40;;;;;;7375176;19;20140;-43
2022/01/12 04:42:46;;;;;;;11.32;7.32;;;-0.60;77.30;;;;;;7380830;19;20135;-43
2022/01/12 04:45:33;;;;;;;10.98;6.90;;;-0.60;77.00;;;;;;7379733;19;20753;-43
2022/01/12 04:48:09;;;;;;;10.18;7.03;;;-0.60;77.00;;;;;;7379992;19;20151;-43
2022/01/12 04:50:38;;;;;;;10.98;7.15;;;-0.60;76.80;;;;;;7372815;19;20127;-43
2022/01/12 04:53:09;;;;;;;7.25;5.95;;;-0.60;77.00;;;;;;7379571;19;20620;-44
2022/01/12 04:55:39;;;;;;;11.90;6.95;;;-0.60;77.10;;;;;;7384658;19;20127;-43
2022/01/12 04:58:15;;;;;;;10.32;6.90;;;-0.60;77.20;;;;;;7383079;19;20139;-44
2022/01/12 05:00:46;;;;;;;10.60;6.70;;;-0.70;77.50;;;;;;7384412;19;20506;-44
2022/01/12 05:09:03;;;;;;;10.73;6.72;;;-0.70;77.80;;;;;;7385446;19;20174;-44
2022/01/12 05:14:20;;;;;;;13.00;7.88;;;-0.70;77.60;;;;;;7385276;19;20565;-43
2022/01/12 05:16:50;;;;;;;16.55;8.05;;;-0.80;77.60;;;;;;7381793;19;20127;-43
2022/01/12 05:19:20;;;;;;;12.80;8.65;;;-0.70;77.60;;;;;;7381484;19;20128;-43
2022/01/12 05:21:50;;;;;;;10.52;7.15;;;-0.70;77.80;;;;;;7385897;19;20142;-43
2022/01/12 05:24:22;;;;;;;10.43;7.75;;;-0.80;77.50;;;;;;7387347;19;20495;-43
2022/01/12 05:26:52;;;;;;;13.82;8.45;;;-0.80;77.50;;;;;;7383555;19;20137;-43
2022/01/12 05:29:24;;;;;;;12.85;7.97;;;-0.90;77.90;;;;;;7382916;19;20136;-44
2022/01/12 05:31:56;;;;;;;11.27;7.63;;;-0.80;78.00;;;;;;7385828;19;20135;-43
2022/01/12 05:34:27;;;;;;;13.48;8.18;;;-0.90;78.30;;;;;;7383481;19;20143;-43
2022/01/12 05:36:57;;;;;;;11.40;7.90;;;-0.80;78.80;;;;;;7383727;19;20142;-43
2022/01/12 05:39:26;;;;;;;13.43;8.85;;;-0.70;78.10;;;;;;7381777;19;20130;-43
2022/01/12 05:41:58;;;;;;;15.75;8.90;;;-0.70;77.70;;;;;;7386347;19;20123;-42
2022/01/12 05:44:30;;;;;;;17.83;10.82;;;-0.70;77.80;;;;;;7379117;19;20131;-43
2022/01/12 05:47:00;;;;;;;16.80;10.43;;;-0.80;77.60;;;;;;7385066;19;20533;-43
2022/01/12 05:49:36;;;;;;;16.20;10.63;;;-0.80;77.70;;;;;;7380213;19;20172;-43
2022/01/12 05:52:08;;;;;;;15.45;9.43;;;-0.90;77.40;;;;;;7385726;19;20132;-43
2022/01/12 05:54:40;;;;;;;11.48;9.13;;;-0.90;78.00;;;;;;7383139;19;20131;-42
2022/01/12 05:57:10;;;;;;;16.17;9.93;;;-0.90;78.30;;;;;;7379861;19;20598;-43
2022/01/12 05:59:44;;;;;;;16.52;9.18;;;-0.90;78.10;;;;;;7383496;19;20132;-44
2022/01/12 06:02:16;;;;;;;18.55;8.95;;;-1.00;78.30;;;;;;7383745;19;20127;-43
2022/01/12 06:04:47;;;;;;;15.30;10.30;;;-0.90;78.60;;;;;;7383213;19;20619;-43
2022/01/12 06:07:17;;;;;;;14.00;9.80;;;-0.80;78.10;;;;;;7372250;19;20127;-43
2022/01/12 06:09:47;;;;;;;14.77;9.23;;;-0.80;78.20;;;;;;7380721;19;20551;-43
2022/01/12 06:12:17;;;;;;;18.20;10.85;;;-0.80;77.80;;;;;;7371865;19;20162;-43
2022/01/12 06:14:49;;;;;;;16.55;11.05;;;-0.80;77.80;;;;;;7382208;19;20184;-43
2022/01/12 06:17:19;;;;;;;16.75;10.05;;;-0.80;77.80;;;;;;7367670;19;20140;-42
2022/01/12 06:19:48;;;;;;;18.75;10.95;;;-0.80;77.50;;;;;;7360089;19;20148;-42
2022/01/12 06:22:39;;;;;;;19.67;10.70;;;-0.80;77.60;;;;;;7352653;19;20147;-43
2022/01/12 06:25:14;;;;;;;19.65;10.07;;;-0.90;77.80;;;;;;7357453;19;20132;-43
2022/01/12 06:27:50;;;;;;;16.73;9.90;;;-0.90;77.90;;;;;;7371068;19;20127;-43
2022/01/12 06:33:06;;;;;;;15.40;10.00;;;-1.00;78.70;;;;;;7372218;19;20492;-42
2022/01/12 06:35:38;;;;;;;16.73;10.43;;;-0.90;78.60;;;;;;7372220;19;20135;-43
2022/01/12 06:38:08;;;;;;;19.55;12.05;;;-0.80;78.40;;;;;;7370349;19;20124;-43
2022/01/12 06:40:39;;;;;;;19.45;10.93;;;-0.80;78.00;;;;;;7376373;19;20139;-43
2022/01/12 06:43:09;;;;;;;23.13;13.85;;;-0.90;78.20;;;;;;7379730;19;20227;-43
2022/01/12 06:45:41;;;;;;;25.08;13.57;;;-1.10;78.70;;;;;;7379365;19;20210;-42
2022/01/12 06:48:11;;;;;;;17.70;11.45;;;-1.10;78.70;;;;;;7380029;19;20608;-46
2022/01/12 06:50:40;;;;;;;26.02;13.93;;;-1.10;78.50;;;;;;7387046;19;20598;-43
2022/01/12 06:53:10;;;;;;;27.88;15.45;;;-1.00;78.50;;;;;;7393467;19;20120;-43
2022/01/12 06:55:40;;;;;;;29.65;16.95;;;-1.00;78.40;;;;;;7390482;19;20127;-43
2022/01/12 06:58:10;;;;;;;22.73;12.85;;;-0.90;78.40;;;;;;7392944;19;20138;-42
2022/01/12 07:00:42;;;;;;;24.20;13.63;;;-1.00;78.20;;;;;;7395742;19;20161;-42
2022/01/12 07:03:13;;;;;;;21.63;11.13;;;-0.90;78.20;;;;;;7393939;19;20190;-43
2022/01/12 07:05:53;;;;;;;18.90;11.00;;;-0.90;78.10;;;;;;7391087;19;20139;-43
2022/01/12 07:08:23;;;;;;;21.02;12.05;;;-0.90;78.00;;;;;;7392031;19;20146;-44
2022/01/12 07:10:57;;;;;;;19.67;11.73;;;-0.80;78.10;;;;;;7390720;19;20578;-43
2022/01/12 07:13:27;;;;;;;21.52;12.15;;;-0.80;77.30;;;;;;7391360;19;20605;-43
2022/01/12 07:16:00;;;;;;;18.50;10.75;;;-0.90;78.30;;;;;;7389772;19;20134;-43
2022/01/12 07:18:30;;;;;;;22.02;14.10;;;-0.90;77.50;;;;;;7391217;19;20142;-43
2022/01/12 07:21:02;;;;;;;21.42;10.70;;;-0.80;77.30;;;;;;7389366;19;20123;-43
2022/01/12 07:23:34;;;;;;;18.80;11.07;;;-0.80;77.20;;;;;;7381090;19;20158;-43
2022/01/12 07:26:04;;;;;;;17.30;11.10;;;-0.70;76.70;;;;;;7380834;19;20132;-43
2022/01/12 07:28:33;;;;;;;19.00;11.88;;;-0.70;76.70;;;;;;7378702;19;20642;-43
2022/01/12 07:31:05;;;;;;;22.50;12.30;;;-0.80;76.50;;;;;;7382665;19;20135;-43
2022/01/12 07:33:35;;;;;;;21.20;12.10;;;-0.80;76.40;;;;;;7380414;19;20148;-43
2022/01/12 07:36:08;;;;;;;20.85;13.15;;;-0.80;77.30;;;;;;7380644;19;21043;-43
2022/01/12 07:38:40;;;;;;;18.98;11.30;;;-0.90;76.60;;;;;;7378110;19;20127;-43
2022/01/12 07:41:10;;;;;;;21.90;12.40;;;-0.90;76.80;;;;;;7379960;19;20138;-43
2022/01/12 07:43:39;;;;;;;18.30;12.43;;;-0.90;76.60;;;;;;7382087;19;20131;-43
2022/01/12 07:46:12;;;;;;;25.95;12.80;;;-0.90;76.30;;;;;;7381194;19;20140;-43
2022/01/12 07:48:42;;;;;;;20.60;12.35;;;-0.90;76.50;;;;;;7379465;19;20168;-43
2022/01/12 07:51:12;;;;;;;20.45;12.00;;;-1.00;76.60;;;;;;7382167;19;20169;-42
2022/01/12 07:53:41;;;;;;;21.83;12.10;;;-0.90;76.70;;;;;;7373663;19;20135;-43
2022/01/12 07:56:13;;;;;;;19.20;11.80;;;-0.90;76.40;;;;;;7377981;19;20173;-43
2022/01/12 07:58:42;;;;;;;21.02;11.88;;;-0.90;76.60;;;;;;7376451;19;20191;-43
2022/01/12 08:01:15;;;;;;;22.70;12.63;;;-0.70;76.60;;;;;;7378396;19;20179;-43
2022/01/12 08:03:44;;;;;;;21.55;12.20;;;-0.70;75.80;;;;;;7377674;19;20131;-43
2022/01/12 08:06:14;;;;;;;20.48;11.88;;;-0.60;75.90;;;;;;7385225;19;20127;-43
2022/01/12 08:08:43;;;;;;;19.33;12.20;;;-0.30;75.40;;;;;;7379309;19;20629;-43
2022/01/12 08:11:13;;;;;;;21.08;11.73;;;-0.10;74.60;;;;;;7379456;19;20711;-43
2022/01/12 08:13:42;;;;;;;23.73;13.00;;;0.20;73.60;;;;;;7375239;19;20788;-43
2022/01/12 08:16:14;;;;;;;19.50;12.20;;;0.30;72.00;;;;;;7357030;19;20155;-44
2022/01/12 08:18:46;;;;;;;21.27;12.80;;;0.40;70.90;;;;;;7361249;19;20127;-44
2022/01/12 08:21:16;;;;;;;21.33;11.48;;;0.30;71.10;;;;;;7365239;19;20167;-44
2022/01/12 08:23:46;;;;;;;15.57;10.50;;;0.20;71.40;;;;;;7371588;19;20136;-44
2022/01/12 08:26:15;;;;;;;15.88;10.35;;;0.20;72.80;;;;;;7375028;19;20594;-43
2022/01/12 08:28:45;;;;;;;22.58;13.70;;;0.20;71.70;;;;;;7371700;19;20183;-44
2022/01/12 08:31:17;;;;;;;23.08;12.20;;;0.30;71.80;;;;;;7375514;19;20128;-44
2022/01/12 08:33:47;;;;;;;22.98;11.57;;;0.50;71.90;;;;;;7378152;19;20150;-44
2022/01/12 08:36:17;;;;;;;19.63;11.40;;;0.80;72.30;;;;;;7376662;19;20136;-44
2022/01/12 08:38:47;;;;;;;19.88;11.40;;;1.20;70.80;;;;;;7371264;19;20518;-45
2022/01/12 08:41:17;;;;;;;17.10;10.45;;;1.50;68.80;;;;;;7373290;19;20134;-44
2022/01/12 08:43:46;;;;;;;14.20;9.93;;;1.60;67.20;;;;;;7363762;19;20791;-44
2022/01/12 08:46:18;;;;;;;13.35;10.30;;;1.80;67.20;;;;;;7375450;19;20151;-44
2022/01/12 08:48:48;;;;;;;19.55;10.52;;;1.90;66.60;;;;;;7374854;19;20621;-44
2022/01/12 08:51:18;;;;;;;17.70;11.43;;;2.00;65.50;;;;;;7375784;19;20423;-44
2022/01/12 08:53:47;;;;;;;16.45;10.68;;;1.60;65.50;;;;;;7374207;19;20135;-44
2022/01/12 08:56:19;;;;;;;13.63;9.88;;;1.70;66.40;;;;;;7371906;19;20147;-44
2022/01/12 08:58:48;;;;;;;15.90;10.73;;;1.60;66.30;;;;;;7375708;19;20132;-44
2022/01/12 09:01:21;;;;;;;14.60;10.75;;;1.50;66.40;;;;;;7376413;19;20647;-44
2022/01/12 09:03:51;;;;;;;17.13;11.02;;;1.30;67.00;;;;;;7372742;19;20135;-44
2022/01/12 09:06:20;;;;;;;15.50;10.77;;;1.20;66.80;;;;;;7377390;19;20138;-44
2022/01/12 09:08:50;;;;;;;17.92;9.98;;;1.30;67.00;;;;;;7373723;19;20961;-44
2022/01/12 09:11:20;;;;;;;19.23;11.50;;;1.50;66.40;;;;;;7372224;19;20155;-46
2022/01/12 09:13:50;;;;;;;14.35;9.90;;;2.00;65.50;;;;;;7376490;19;20136;-44
2022/01/12 09:16:22;;;;;;;15.52;10.52;;;2.90;62.60;;;;;;7376506;19;20211;-45
2022/01/12 09:18:51;;;;;;;17.02;11.45;;;3.90;58.70;;;;;;7377111;19;20606;-44
2022/01/12 09:21:23;;;;;;;18.23;12.35;;;4.60;57.00;;;;;;7376814;19;20462;-44
2022/01/12 09:23:53;;;;;;;14.40;9.65;;;5.70;55.40;;;;;;7369486;19;20228;-46
2022/01/12 09:26:23;;;;;;;12.32;9.90;;;6.60;52.20;;;;;;7375670;19;20146;-46
2022/01/12 09:28:52;;;;;;;12.95;10.38;;;7.60;51.60;;;;;;7376611;19;20477;-45
2022/01/12 09:31:25;;;;;;;11.75;8.75;;;8.40;49.00;;;;;;7375672;19;20128;-35
2022/01/12 09:33:55;;;;;;;10.90;8.80;;;8.80;47.20;;;;;;7376462;19;20136;-35
2022/01/12 09:36:24;;;;;;;10.33;9.23;;;9.40;47.00;;;;;;7373433;19;20417;-34
2022/01/12 09:38:54;;;;;;;10.70;9.60;;;10.50;43.90;;;;;;7373806;19;20388;-35
2022/01/12 09:41:25;;;;;;;11.00;8.90;;;11.00;42.20;;;;;;7374034;19;21009;-34
2022/01/12 09:43:57;;;;;;;10.20;8.33;;;11.50;40.20;;;;;;7376758;19;20384;-34
2022/01/12 09:46:29;;;;;;;8.67;7.77;;;10.80;40.20;;;;;;7373398;19;20406;-34
2022/01/12 09:49:06;;;;;;;11.13;9.87;;;9.70;42.60;;;;;;7374078;19;20388;-34
2022/01/12 09:51:36;;;;;;;12.83;9.30;;;9.00;43.30;;;;;;7375205;19;20403;-34
2022/01/12 09:54:05;;;;;;;7.83;6.63;;;7.70;45.20;;;;;;7375613;19;20372;-33
2022/01/12 09:56:35;;;;;;;10.50;7.93;;;5.90;47.10;;;;;;7373489;19;20376;-33
2022/01/12 09:59:10;;;;;;;10.00;8.20;;;5.60;49.90;;;;;;7375471;19;20420;-33
2022/01/12 10:01:48;;;;;;;12.90;8.50;;;6.70;50.10;;;;;;7373044;19;20403;-44
2022/01/12 10:04:21;;;;;;;12.00;7.97;;;8.50;47.00;;;;;;7374014;19;20380;-44
2022/01/12 10:06:53;;;;;;;9.80;7.40;;;8.50;44.40;;;;;;7375522;19;20364;-44
2022/01/12 10:09:26;;;;;;;12.80;9.37;;;7.90;45.40;;;;;;7366585;19;20383;-44
2022/01/12 10:11:57;;;;;;;9.13;7.73;;;7.10;46.80;;;;;;7368272;19;20428;-44
2022/01/12 10:14:41;;;;;;;9.50;8.40;;;6.20;47.70;;;;;;7370936;19;20834;-43
2022/01/12 10:17:15;;;;;;;12.70;8.48;;;5.50;49.80;;;;;;7382422;19;20406;-43
2022/01/12 10:19:45;;;;;;;12.43;8.27;;;5.10;51.10;;;;;;7378239;19;20567;-43
2022/01/12 10:22:16;;;;;;;10.52;7.82;;;4.70;51.90;;;;;;7380924;19;20195;-44
2022/01/12 10:24:48;;;;;;;11.18;7.65;;;4.50;52.80;;;;;;7384722;19;20757;-43
2022/01/12 10:27:20;;;;;;;12.98;9.77;;;4.40;53.20;;;;;;7378551;19;20549;-44
2022/01/12 10:29:58;;;;;;;11.75;8.68;;;4.40;53.40;;;;;;7378623;19;20223;-43
2022/01/12 10:32:30;;;;;;;11.07;8.90;;;4.40;53.50;;;;;;7380689;19;20156;-44
2022/01/12 10:35:00;;;;;;;11.90;9.18;;;4.40;54.10;;;;;;7379502;19;20135;-43
2022/01/12 10:37:30;;;;;;;11.98;8.23;;;4.50;53.50;;;;;;7380950;19;20131;-43
2022/01/12 10:40:00;;;;;;;9.77;8.25;;;4.60;53.20;;;;;;7376592;19;20621;-43
2022/01/12 10:42:31;;;;;;;10.32;8.50;;;4.70;52.70;;;;;;7377880;19;20150;-43
2022/01/12 10:45:02;;;;;;;8.73;7.10;;;4.40;53.20;;;;;;7378458;19;20132;-43
2022/01/12 10:47:34;;;;;;;13.90;8.50;;;4.30;54.00;;;;;;7377431;19;20139;-43
2022/01/12 10:50:08;;;;;;;11.73;8.25;;;4.30;53.70;;;;;;7382502;19;20120;-43
2022/01/12 10:52:40;;;;;;;13.15;10.00;;;4.30;53.60;;;;;;7375358;19;20692;-43
2022/01/12 10:55:12;;;;;;;20.40;10.85;;;4.10;54.70;;;;;;7378826;19;20602;-43
2022/01/12 10:57:44;;;;;;;14.15;10.30;;;3.80;55.70;;;;;;7377789;19;20203;-43
2022/01/12 11:00:22;;;;;;;14.05;9.95;;;3.70;56.30;;;;;;7377193;19;20135;-43
2022/01/12 11:02:59;;;;;;;20.00;11.15;;;3.70;56.50;;;;;;7378783;19;20506;-43
2022/01/12 11:05:32;;;;;;;15.45;10.95;;;3.70;56.80;;;;;;7378300;19;20168;-43
2022/01/12 11:08:02;;;;;;;13.07;9.73;;;3.60;57.10;;;;;;7378561;19;20135;-43
2022/01/12 11:10:32;;;;;;;16.48;10.50;;;3.50;57.10;;;;;;7374729;19;20167;-43
2022/01/12 11:13:01;;;;;;;14.32;10.30;;;4.70;57.10;;;;;;7376066;19;20138;-43
2022/01/12 11:15:33;;;;;;;13.68;10.48;;;6.90;52.80;;;;;;7376072;19;20168;-43
2022/01/12 11:18:07;;;;;;;11.43;9.15;;;9.20;47.80;;;;;;7378450;19;20123;-44
2022/01/12 11:20:37;;;;;;;11.48;9.40;;;11.50;42.20;;;;;;7378385;19;20670;-43
2022/01/12 11:23:11;;;;;;;11.23;8.73;;;12.20;39.70;;;;;;7381446;19;20138;-44
2022/01/12 11:25:42;;;;;;;13.77;10.30;;;13.10;38.50;;;;;;7375987;19;20421;-45
2022/01/12 11:28:15;;;;;;;14.17;10.10;;;13.30;36.70;;;;;;7377193;19;20395;-45
2022/01/12 11:30:47;;;;;;;10.20;9.00;;;13.90;35.20;;;;;;7376560;19;21835;-44
2022/01/12 11:33:21;;;;;;;9.77;8.77;;;14.00;35.80;;;;;;7375556;19;20368;-44
2022/01/12 11:35:53;;;;;;;11.60;9.70;;;15.00;34.20;;;;;;7364918;19;20918;-45
2022/01/12 11:38:27;;;;;;;11.87;8.13;;;14.50;33.30;;;;;;7371066;19;20363;-44
2022/01/12 11:40:59;;;;;;;11.67;10.20;;;14.70;33.90;;;;;;7372096;19;20384;-45
2022/01/12 11:43:31;;;;;;;12.17;9.00;;;14.80;33.00;;;;;;7375275;19;20941;-45
2022/01/12 11:46:05;;;;;;;10.17;8.70;;;14.30;33.10;;;;;;7377493;19;20378;-44
2022/01/12 11:48:42;;;;;;;13.67;9.60;;;13.70;32.90;;;;;;7380184;19;20388;-44
2022/01/12 11:51:13;;;;;;;13.27;9.20;;;11.70;34.80;;;;;;7381564;19;20383;-44
2022/01/12 11:53:51;;;;;;;11.97;9.63;;;9.90;38.90;;;;;;7379606;19;20417;-44
2022/01/12 11:56:26;;;;;;;15.13;9.73;;;8.20;41.80;;;;;;7378487;19;20368;-44
2022/01/12 11:59:02;;;;;;;14.40;9.90;;;7.50;44.10;;;;;;7380058;19;20379;-44
2022/01/12 12:01:44;;;;;;;14.83;9.70;;;6.70;45.80;;;;;;7372164;19;20412;-43
2022/01/12 12:04:25;;;;;;;11.93;9.67;;;6.00;47.50;;;;;;7376689;19;20440;-43
2022/01/12 12:07:07;;;;;;;13.27;10.40;;;5.90;48.10;;;;;;7373746;19;20384;-41
2022/01/12 12:09:44;;;;;;;10.40;8.52;;;5.80;48.80;;;;;;7368085;19;20127;-44
2022/01/12 12:12:16;;;;;;;12.57;8.98;;;5.60;49.50;;;;;;7369812;19;20151;-47
2022/01/12 12:14:47;;;;;;;10.02;8.00;;;5.10;50.30;;;;;;7370065;19;20486;-43
2022/01/12 12:17:18;;;;;;;11.43;8.07;;;5.10;51.10;;;;;;7375622;19;20142;-43
2022/01/12 12:19:52;;;;;;;12.43;8.25;;;5.40;50.50;;;;;;7374249;19;20537;-43
2022/01/12 12:22:25;;;;;;;8.88;7.70;;;6.40;49.70;;;;;;7374417;19;20131;-43
2022/01/12 12:24:57;;;;;;;14.65;9.13;;;6.90;47.10;;;;;;7378495;19;21127;-43
2022/01/12 12:27:34;;;;;;;10.60;8.27;;;6.60;47.50;;;;;;7379293;19;20171;-43
2022/01/12 12:30:05;;;;;;;14.77;9.55;;;6.00;48.60;;;;;;7375338;19;20494;-43
2022/01/12 12:32:37;;;;;;;13.90;8.70;;;5.90;49.00;;;;;;7374836;19;20147;-44
2022/01/12 12:35:12;;;;;;;13.88;9.30;;;5.70;49.80;;;;;;7376204;19;20720;-43
2022/01/12 12:37:44;;;;;;;14.32;9.82;;;5.30;50.80;;;;;;7374312;19;20557;-44
2022/01/12 12:40:22;;;;;;;15.32;10.10;;;5.00;51.00;;;;;;7372497;19;20483;-43
2022/01/12 12:43:04;;;;;;;12.05;9.30;;;4.90;51.60;;;;;;7373418;19;20127;-43
2022/01/12 12:45:41;;;;;;;11.43;8.80;;;4.80;51.90;;;;;;7376031;19;20641;-43
2022/01/12 12:48:12;;;;;;;15.10;9.45;;;4.80;52.00;;;;;;7375132;19;20166;-44
2022/01/12 12:50:45;;;;;;;14.55;9.45;;;4.50;52.30;;;;;;7375488;19;20210;-43
2022/01/12 12:53:17;;;;;;;14.35;9.18;;;4.30;52.80;;;;;;7375328;19;20124;-44
2022/01/12 12:55:48;;;;;;;14.10;9.70;;;4.30;53.10;;;;;;7373928;19;20860;-43
2022/01/12 12:58:18;;;;;;;14.57;9.40;;;4.50;53.10;;;;;;7372162;19;20229;-43
2022/01/12 13:00:48;;;;;;;16.02;9.88;;;4.60;53.00;;;;;;7374428;19;20612;-43
2022/01/12 13:03:17;;;;;;;14.70;10.57;;;4.60;53.20;;;;;;7375554;19;20138;-42
2022/01/12 13:05:49;;;;;;;15.43;9.63;;;4.60;53.30;;;;;;7372038;19;20131;-43
2022/01/12 13:08:19;;;;;;;14.65;10.68;;;4.30;53.70;;;;;;7374833;19;20127;-43
2022/01/12 13:10:49;;;;;;;13.85;9.98;;;4.20;53.60;;;;;;7370139;19;20756;-43
2022/01/12 13:13:23;;;;;;;16.23;10.18;;;4.30;53.80;;;;;;7373970;19;20629;-43
2022/01/12 13:15:52;;;;;;;13.50;9.68;;;4.20;54.00;;;;;;7374054;19;20139;-43
2022/01/12 13:18:24;;;;;;;15.50;9.43;;;3.90;54.40;;;;;;7349954;19;20195;-43
2022/01/12 13:21:07;;;;;;;14.55;10.15;;;3.80;54.50;;;;;;7373841;19;20613;-43
2022/01/12 13:23:41;;;;;;;13.57;9.85;;;3.80;54.80;;;;;;7374240;19;20210;-42
2022/01/12 13:26:14;;;;;;;17.90;10.27;;;3.90;54.90;;;;;;7375641;19;20135;-43
2022/01/12 13:28:47;;;;;;;13.27;9.48;;;4.00;54.80;;;;;;7375928;19;20136;-43
2022/01/12 13:31:19;;;;;;;14.57;9.85;;;4.20;55.10;;;;;;7372687;19;20132;-43
2022/01/12 13:33:50;;;;;;;14.63;9.95;;;4.20;55.00;;;;;;7372985;19;20275;-43
2022/01/12 13:36:24;;;;;;;15.68;10.10;;;4.80;55.10;;;;;;7373688;19;20127;-43
2022/01/12 13:38:58;;;;;;;12.00;9.30;;;4.30;54.50;;;;;;7373337;19;20139;-43
2022/01/12 13:41:30;;;;;;;14.23;8.52;;;4.30;54.30;;;;;;7376216;19;21057;-33
2022/01/12 13:44:04;;;;;;;15.02;9.35;;;4.30;54.20;;;;;;7379719;19;20131;-33
2022/01/12 13:46:37;;;;;;;10.73;8.48;;;4.10;54.80;;;;;;7376151;19;20123;-33
2022/01/12 13:49:21;;;;;;;15.20;9.75;;;4.10;54.80;;;;;;7378346;19;20231;-33
2022/01/12 13:52:02;;;;;;;11.25;8.23;;;4.10;54.90;;;;;;7385602;19;20622;-33
2022/01/12 13:54:36;;;;;;;12.00;8.48;;;4.10;55.10;;;;;;7385312;19;20127;-33
2022/01/12 13:57:07;;;;;;;14.15;8.65;;;4.20;55.40;;;;;;7382139;19;20652;-33
2022/01/12 13:59:47;;;;;;;12.35;8.80;;;4.20;55.60;;;;;;7382190;19;20135;-33
2022/01/12 14:02:19;;;;;;;15.30;9.57;;;4.20;55.40;;;;;;7387689;19;20149;-33
2022/01/12 14:04:59;;;;;;;11.82;8.77;;;4.10;55.50;;;;;;7382987;19;20136;-33
2022/01/12 14:07:35;;;;;;;13.35;8.23;;;4.00;55.20;;;;;;7382670;19;20597;-33
2022/01/12 14:10:06;;;;;;;13.05;9.25;;;3.70;55.90;;;;;;7384558;19;20135;-43
2022/01/12 14:12:37;;;;;;;14.20;10.30;;;3.80;56.10;;;;;;7373801;19;20152;-43
2022/01/12 14:15:09;;;;;;;17.38;10.13;;;3.80;56.70;;;;;;7382313;19;20142;-43